sensor_id;sensor_type;location;lat;lon;timestamp;pressure;altitude;pressure_sealevel;temperature;humidity
2675;BME280;1347;42.122;24.746;2024-02-14T00:02:27;99128.38;;;9.13;100.00
2675;BME280;1347;42.122;24.746;2024-02-14T00:04:54;99124.00;;;9.09;100.00
2675;BME280;1347;42.122;24.746;2024-02-14T00:07:23;99127.97;;;9.11;100.00
2675;BME280;1347;42.122;24.746;2024-02-14T00:09:52;99122.13;;;9.13;100.00
2675;BME280;1347;42.122;24.746;2024-02-14T00:12:19;99134.31;;;9.19;100.00
2675;BME280;1347;42.122;24.746;2024-02-14T00:14:46;99131.56;;;9.19;100.00
2675;BME280;1347;42.122;24.746;2024-02-14T00:17:14;99133.22;;;9.23;100.00
2675;BME280;1347;42.122;24.746;2024-02-14T00:19:42;99136.25;;;9.18;100.00
2675;BME280;1347;42.122;24.746;2024-02-14T00:22:09;99145.59;;;9.17;100.00
2675;BME280;1347;42.122;24.746;2024-02-14T00:24:36;99137.53;;;9.25;100.00
2675;BME280;1347;42.122;24.746;2024-02-14T00:27:03;99144.03;;;9.16;100.00
2675;BME280;1347;42.122;24.746;2024-02-14T00:29:30;99151.47;;;9.16;100.00
2675;BME280;1347;42.122;24.746;2024-02-14T00:31:59;99150.34;;;9.20;100.00
2675;BME280;1347;42.122;24.746;2024-02-14T00:34:26;99148.63;;;9.09;100.00
2675;BME280;1347;42.122;24.746;2024-02-14T00:36:54;99153.81;;;9.17;100.00
2675;BME280;1347;42.122;24.746;2024-02-14T00:39:21;99141.06;;;9.25;100.00
2675;BME280;1347;42.122;24.746;2024-02-14T00:41:48;99145.66;;;9.21;100.00
2675;BME280;1347;42.122;24.746;2024-02-14T00:44:18;99144.59;;;9.29;100.00
2675;BME280;1347;42.122;24.746;2024-02-14T00:46:45;99142.63;;;9.26;100.00
2675;BME280;1347;42.122;24.746;2024-02-14T00:49:13;99148.47;;;9.25;100.00
2675;BME280;1347;42.122;24.746;2024-02-14T00:51:41;99150.44;;;9.28;100.00
2675;BME280;1347;42.122;24.746;2024-02-14T00:54:09;99159.72;;;9.19;100.00
2675;BME280;1347;42.122;24.746;2024-02-14T00:56:36;99145.59;;;9.17;100.00
2675;BME280;1347;42.122;24.746;2024-02-14T00:59:03;99152.63;;;9.15;100.00
2675;BME280;1347;42.122;24.746;2024-02-14T01:01:31;99149.84;;;9.11;100.00
2675;BME280;1347;42.122;24.746;2024-02-14T01:03:58;99150.69;;;9.15;100.00
2675;BME280;1347;42.122;24.746;2024-02-14T01:06:26;99153.00;;;9.13;100.00
2675;BME280;1347;42.122;24.746;2024-02-14T01:08:53;99155.81;;;9.20;100.00
2675;BME280;1347;42.122;24.746;2024-02-14T01:11:21;99153.03;;;9.17;100.00
2675;BME280;1347;42.122;24.746;2024-02-14T01:13:48;99152.22;;;9.16;100.00
2675;BME280;1347;42.122;24.746;2024-02-14T01:16:15;99149.47;;;9.13;100.00
2675;BME280;1347;42.122;24.746;2024-02-14T01:18:42;99154.50;;;9.11;100.00
2675;BME280;1347;42.122;24.746;2024-02-14T01:21:09;99149.78;;;9.08;100.00
2675;BME280;1347;42.122;24.746;2024-02-14T01:23:36;99154.81;;;9.06;100.00
2675;BME280;1347;42.122;24.746;2024-02-14T01:26:03;99150.47;;;9.01;100.00
2675;BME280;1347;42.122;24.746;2024-02-14T01:28:31;99150.88;;;9.03;100.00
2675;BME280;1347;42.122;24.746;2024-02-14T01:30:59;99158.34;;;9.06;100.00
2675;BME280;1347;42.122;24.746;2024-02-14T01:33:25;99152.34;;;8.97;100.00
2675;BME280;1347;42.122;24.746;2024-02-14T01:35:53;99159.03;;;9.00;100.00
2675;BME280;1347;42.122;24.746;2024-02-14T01:38:21;99159.03;;;9.00;100.00
2675;BME280;1347;42.122;24.746;2024-02-14T01:40:48;99157.44;;;8.99;100.00
2675;BME280;1347;42.122;24.746;2024-02-14T01:43:14;99159.75;;;8.97;100.00
2675;BME280;1347;42.122;24.746;2024-02-14T01:45:43;99153.19;;;9.01;100.00
2675;BME280;1347;42.122;24.746;2024-02-14T01:48:10;99152.50;;;9.08;100.00
2675;BME280;1347;42.122;24.746;2024-02-14T01:50:37;99153.91;;;8.98;100.00
2675;BME280;1347;42.122;24.746;2024-02-14T01:53:06;99157.44;;;8.99;100.00
2675;BME280;1347;42.122;24.746;2024-02-14T01:55:34;99157.88;;;9.01;100.00
2675;BME280;1347;42.122;24.746;2024-02-14T01:58:01;99157.09;;;9.00;100.00
2675;BME280;1347;42.122;24.746;2024-02-14T02:00:29;99159.44;;;9.02;100.00
2675;BME280;1347;42.122;24.746;2024-02-14T02:03:02;99164.31;;;8.89;100.00
2675;BME280;1347;42.122;24.746;2024-02-14T02:05:31;99160.66;;;9.04;100.00
2675;BME280;1347;42.122;24.746;2024-02-14T02:07:59;99169.22;;;9.03;100.00
2675;BME280;1347;42.122;24.746;2024-02-14T02:10:26;99164.59;;;9.07;100.00
2675;BME280;1347;42.122;24.746;2024-02-14T02:12:58;99184.53;;;9.07;100.00
2675;BME280;1347;42.122;24.746;2024-02-14T02:15:25;99176.94;;;8.97;100.00
2675;BME280;1347;42.122;24.746;2024-02-14T02:17:53;99182.94;;;9.06;100.00
2675;BME280;1347;42.122;24.746;2024-02-14T02:20:22;99171.84;;;8.96;100.00
2675;BME280;1347;42.122;24.746;2024-02-14T02:22:50;99180.47;;;8.98;100.00
2675;BME280;1347;42.122;24.746;2024-02-14T02:25:17;99184.84;;;9.02;100.00
2675;BME280;1347;42.122;24.746;2024-02-14T02:27:48;99181.69;;;9.00;100.00
2675;BME280;1347;42.122;24.746;2024-02-14T02:30:15;99189.41;;;8.95;100.00
2675;BME280;1347;42.122;24.746;2024-02-14T02:32:42;99187.63;;;9.06;100.00
2675;BME280;1347;42.122;24.746;2024-02-14T02:35:09;99190.31;;;9.02;100.00
2675;BME280;1347;42.122;24.746;2024-02-14T02:37:36;99195.00;;;9.02;100.00
2675;BME280;1347;42.122;24.746;2024-02-14T02:40:08;99205.03;;;8.94;100.00
2675;BME280;1347;42.122;24.746;2024-02-14T02:42:36;99205.56;;;9.03;100.00
2675;BME280;1347;42.122;24.746;2024-02-14T02:45:04;99213.41;;;9.05;100.00
2675;BME280;1347;42.122;24.746;2024-02-14T02:47:31;99211.22;;;8.91;100.00
2675;BME280;1347;42.122;24.746;2024-02-14T02:49:58;99211.03;;;9.03;100.00
2675;BME280;1347;42.122;24.746;2024-02-14T02:52:27;99213.63;;;8.96;100.00
2675;BME280;1347;42.122;24.746;2024-02-14T02:54:54;99214.91;;;9.02;100.00
2675;BME280;1347;42.122;24.746;2024-02-14T02:57:22;99218.38;;;8.99;100.00
2675;BME280;1347;42.122;24.746;2024-02-14T02:59:52;99218.75;;;8.98;100.00
2675;BME280;1347;42.122;24.746;2024-02-14T03:02:20;99205.81;;;8.95;100.00
2675;BME280;1347;42.122;24.746;2024-02-14T03:04:48;99224.63;;;9.00;100.00
2675;BME280;1347;42.122;24.746;2024-02-14T03:07:16;99220.16;;;8.88;100.00
2675;BME280;1347;42.122;24.746;2024-02-14T03:09:44;99225.34;;;8.97;100.00
2675;BME280;1347;42.122;24.746;2024-02-14T03:12:11;99236.28;;;8.97;100.00
2675;BME280;1347;42.122;24.746;2024-02-14T03:14:42;99239.16;;;9.04;100.00
2675;BME280;1347;42.122;24.746;2024-02-14T03:17:10;99244.19;;;9.02;100.00
2675;BME280;1347;42.122;24.746;2024-02-14T03:19:37;99241.53;;;9.05;100.00
2675;BME280;1347;42.122;24.746;2024-02-14T03:22:06;99245.25;;;8.94;100.00
2675;BME280;1347;42.122;24.746;2024-02-14T03:24:34;99250.22;;;8.88;100.00
2675;BME280;1347;42.122;24.746;2024-02-14T03:27:03;99250.38;;;8.99;100.00
2675;BME280;1347;42.122;24.746;2024-02-14T03:29:31;99256.56;;;8.96;100.00
2675;BME280;1347;42.122;24.746;2024-02-14T03:32:00;99273.47;;;9.01;100.00
2675;BME280;1347;42.122;24.746;2024-02-14T03:34:30;99267.13;;;8.94;100.00
2675;BME280;1347;42.122;24.746;2024-02-14T03:36:59;99269.34;;;8.88;100.00
2675;BME280;1347;42.122;24.746;2024-02-14T03:39:27;99257.75;;;8.95;100.00
2675;BME280;1347;42.122;24.746;2024-02-14T03:41:54;99262.28;;;8.87;100.00
2675;BME280;1347;42.122;24.746;2024-02-14T03:44:22;99257.00;;;8.98;100.00
2675;BME280;1347;42.122;24.746;2024-02-14T03:46:49;99261.31;;;8.99;100.00
2675;BME280;1347;42.122;24.746;2024-02-14T03:49:17;99272.34;;;9.02;100.00
2675;BME280;1347;42.122;24.746;2024-02-14T03:51:45;99274.03;;;8.88;100.00
2675;BME280;1347;42.122;24.746;2024-02-14T03:54:12;99269.34;;;8.88;100.00
2675;BME280;1347;42.122;24.746;2024-02-14T03:56:39;99271.03;;;8.96;100.00
2675;BME280;1347;42.122;24.746;2024-02-14T03:59:06;99283.00;;;8.88;100.00
2675;BME280;1347;42.122;24.746;2024-02-14T04:01:33;99287.09;;;8.98;100.00
2675;BME280;1347;42.122;24.746;2024-02-14T04:04:01;99285.31;;;8.86;100.00
2675;BME280;1347;42.122;24.746;2024-02-14T04:06:29;99285.38;;;8.90;100.00
2675;BME280;1347;42.122;24.746;2024-02-14T04:08:57;99294.97;;;8.80;100.00
2675;BME280;1347;42.122;24.746;2024-02-14T04:11:25;99294.31;;;8.86;100.00
2675;BME280;1347;42.122;24.746;2024-02-14T04:13:52;99292.72;;;8.85;100.00
2675;BME280;1347;42.122;24.746;2024-02-14T04:16:21;99301.78;;;8.90;100.00
2675;BME280;1347;42.122;24.746;2024-02-14T04:18:48;99297.53;;;8.92;100.00
2675;BME280;1347;42.122;24.746;2024-02-14T04:21:15;99299.91;;;8.94;100.00
2675;BME280;1347;42.122;24.746;2024-02-14T04:23:43;99299.84;;;8.90;100.00
2675;BME280;1347;42.122;24.746;2024-02-14T04:26:10;99308.41;;;8.89;100.00
2675;BME280;1347;42.122;24.746;2024-02-14T04:28:47;99309.88;;;8.82;100.00
2675;BME280;1347;42.122;24.746;2024-02-14T04:31:14;99307.06;;;8.79;100.00
2675;BME280;1347;42.122;24.746;2024-02-14T04:33:41;99306.97;;;8.75;100.00
2675;BME280;1347;42.122;24.746;2024-02-14T04:36:08;99312.16;;;8.80;100.00
2675;BME280;1347;42.122;24.746;2024-02-14T04:38:38;99310.22;;;8.81;100.00
2675;BME280;1347;42.122;24.746;2024-02-14T04:41:07;99320.78;;;8.82;100.00
2675;BME280;1347;42.122;24.746;2024-02-14T04:43:35;99314.19;;;8.83;100.00
2675;BME280;1347;42.122;24.746;2024-02-14T04:46:02;99314.41;;;8.75;100.00
2675;BME280;1347;42.122;24.746;2024-02-14T04:48:32;99309.78;;;8.79;99.84
2675;BME280;1347;42.122;24.746;2024-02-14T04:50:59;99320.25;;;8.73;100.00
2675;BME280;1347;42.122;24.746;2024-02-14T04:53:26;99328.19;;;8.82;99.82
2675;BME280;1347;42.122;24.746;2024-02-14T04:55:53;99321.50;;;8.79;99.14
2675;BME280;1347;42.122;24.746;2024-02-14T04:58:24;99321.63;;;8.86;98.70
2675;BME280;1347;42.122;24.746;2024-02-14T05:00:52;99327.84;;;8.83;99.82
2675;BME280;1347;42.122;24.746;2024-02-14T05:03:20;99328.13;;;8.78;99.14
2675;BME280;1347;42.122;24.746;2024-02-14T05:05:47;99327.41;;;8.81;100.00
2675;BME280;1347;42.122;24.746;2024-02-14T05:08:14;99325.47;;;8.82;100.00
2675;BME280;1347;42.122;24.746;2024-02-14T05:10:44;99337.91;;;8.79;99.72
2675;BME280;1347;42.122;24.746;2024-02-14T05:13:11;99341.06;;;8.81;99.60
2675;BME280;1347;42.122;24.746;2024-02-14T05:15:39;99339.56;;;8.84;99.12
2675;BME280;1347;42.122;24.746;2024-02-14T05:18:07;99352.44;;;8.83;98.82
2675;BME280;1347;42.122;24.746;2024-02-14T05:20:35;99337.56;;;8.81;98.82
2675;BME280;1347;42.122;24.746;2024-02-14T05:23:04;99344.59;;;8.82;97.77
2675;BME280;1347;42.122;24.746;2024-02-14T05:25:30;99353.16;;;8.80;98.29
2675;BME280;1347;42.122;24.746;2024-02-14T05:27:58;99356.44;;;8.90;97.71
2675;BME280;1347;42.122;24.746;2024-02-14T05:30:26;99364.56;;;8.86;98.21
2675;BME280;1347;42.122;24.746;2024-02-14T05:32:54;99365.81;;;8.89;97.72
2675;BME280;1347;42.122;24.746;2024-02-14T05:35:22;99374.44;;;8.91;97.76
2675;BME280;1347;42.122;24.746;2024-02-14T05:37:49;99368.88;;;8.87;97.69
2675;BME280;1347;42.122;24.746;2024-02-14T05:40:16;99364.38;;;8.95;97.55
2675;BME280;1347;42.122;24.746;2024-02-14T05:42:43;99368.66;;;8.96;98.03
2675;BME280;1347;42.122;24.746;2024-02-14T05:45:10;99371.53;;;9.03;97.14
2675;BME280;1347;42.122;24.746;2024-02-14T05:47:38;99368.47;;;9.04;96.41
2675;BME280;1347;42.122;24.746;2024-02-14T05:50:07;99382.25;;;9.11;97.69
2675;BME280;1347;42.122;24.746;2024-02-14T05:52:37;99382.97;;;9.08;95.98
2675;BME280;1347;42.122;24.746;2024-02-14T05:55:04;99382.59;;;9.10;95.64
2675;BME280;1347;42.122;24.746;2024-02-14T05:57:33;99385.09;;;9.18;95.53
2675;BME280;1347;42.122;24.746;2024-02-14T05:59:59;99391.72;;;9.17;94.72
2675;BME280;1347;42.122;24.746;2024-02-14T06:02:28;99395.69;;;9.20;94.85
2675;BME280;1347;42.122;24.746;2024-02-14T06:04:55;99403.28;;;9.30;94.60
2675;BME280;1347;42.122;24.746;2024-02-14T06:07:24;99411.63;;;9.37;94.51
2675;BME280;1347;42.122;24.746;2024-02-14T06:09:51;99416.91;;;9.27;94.07
2675;BME280;1347;42.122;24.746;2024-02-14T06:12:17;99411.84;;;9.29;94.05
2675;BME280;1347;42.122;24.746;2024-02-14T06:14:48;99419.47;;;9.39;93.39
2675;BME280;1347;42.122;24.746;2024-02-14T06:17:15;99415.91;;;9.35;94.20
2675;BME280;1347;42.122;24.746;2024-02-14T06:19:45;99430.56;;;9.46;94.54
2675;BME280;1347;42.122;24.746;2024-02-14T06:22:11;99425.72;;;9.39;93.72
2675;BME280;1347;42.122;24.746;2024-02-14T06:24:40;99425.00;;;9.42;93.43
2675;BME280;1347;42.122;24.746;2024-02-14T06:27:07;99424.09;;;9.57;94.05
2675;BME280;1347;42.122;24.746;2024-02-14T06:29:35;99422.09;;;9.54;93.04
2675;BME280;1347;42.122;24.746;2024-02-14T06:32:03;99430.44;;;9.62;93.77
2675;BME280;1347;42.122;24.746;2024-02-14T06:34:29;99430.31;;;9.54;92.41
2675;BME280;1347;42.122;24.746;2024-02-14T06:36:56;99446.47;;;9.63;93.54
2675;BME280;1347;42.122;24.746;2024-02-14T06:39:23;99443.31;;;9.61;93.15
2675;BME280;1347;42.122;24.746;2024-02-14T06:41:52;99444.53;;;9.64;92.83
2675;BME280;1347;42.122;24.746;2024-02-14T06:44:18;99448.78;;;9.61;91.72
2675;BME280;1347;42.122;24.746;2024-02-14T06:46:45;99451.16;;;9.63;92.52
2675;BME280;1347;42.122;24.746;2024-02-14T06:49:16;99446.97;;;9.69;91.70
2675;BME280;1347;42.122;24.746;2024-02-14T06:51:43;99444.97;;;9.66;91.79
2675;BME280;1347;42.122;24.746;2024-02-14T06:54:10;99456.13;;;9.57;91.46
2675;BME280;1347;42.122;24.746;2024-02-14T06:56:37;99453.78;;;9.55;92.83
2675;BME280;1347;42.122;24.746;2024-02-14T06:59:06;99461.25;;;9.58;92.08
2675;BME280;1347;42.122;24.746;2024-02-14T07:01:33;99467.16;;;9.60;92.21
2675;BME280;1347;42.122;24.746;2024-02-14T07:04:00;99479.13;;;9.52;91.42
2675;BME280;1347;42.122;24.746;2024-02-14T07:06:26;99472.97;;;9.59;91.49
2675;BME280;1347;42.122;24.746;2024-02-14T07:08:54;99474.53;;;9.56;91.81
2675;BME280;1347;42.122;24.746;2024-02-14T07:11:20;99481.69;;;9.65;91.61
2675;BME280;1347;42.122;24.746;2024-02-14T07:13:47;99491.50;;;9.66;91.14
2675;BME280;1347;42.122;24.746;2024-02-14T07:16:17;99482.34;;;9.58;91.21
2675;BME280;1347;42.122;24.746;2024-02-14T07:18:47;99488.97;;;9.57;90.39
2675;BME280;1347;42.122;24.746;2024-02-14T07:21:14;99499.31;;;9.67;91.34
2675;BME280;1347;42.122;24.746;2024-02-14T07:23:42;99511.00;;;9.64;90.95
2675;BME280;1347;42.122;24.746;2024-02-14T07:26:09;99501.56;;;9.62;91.15
2675;BME280;1347;42.122;24.746;2024-02-14T07:28:36;99499.28;;;9.64;91.10
2675;BME280;1347;42.122;24.746;2024-02-14T07:31:03;99509.91;;;9.69;91.80
2675;BME280;1347;42.122;24.746;2024-02-14T07:33:32;99507.53;;;9.67;90.48
2675;BME280;1347;42.122;24.746;2024-02-14T07:35:59;99511.00;;;9.64;90.92
2675;BME280;1347;42.122;24.746;2024-02-14T07:38:26;99517.28;;;9.65;91.89
2675;BME280;1347;42.122;24.746;2024-02-14T07:40:53;99522.00;;;9.68;92.58
2675;BME280;1347;42.122;24.746;2024-02-14T07:43:20;99530.00;;;9.76;91.02
2675;BME280;1347;42.122;24.746;2024-02-14T07:45:47;99533.22;;;9.82;91.67
2675;BME280;1347;42.122;24.746;2024-02-14T07:48:17;99526.25;;;9.84;92.08
2675;BME280;1347;42.122;24.746;2024-02-14T07:50:45;99526.09;;;9.77;90.55
2675;BME280;1347;42.122;24.746;2024-02-14T07:53:14;99529.78;;;9.85;90.63
2675;BME280;1347;42.122;24.746;2024-02-14T07:55:41;99530.50;;;9.82;91.77
2675;BME280;1347;42.122;24.746;2024-02-14T07:58:08;99530.81;;;9.77;91.40
2675;BME280;1347;42.122;24.746;2024-02-14T08:00:35;99532.78;;;9.80;89.38
2675;BME280;1347;42.122;24.746;2024-02-14T08:03:02;99543.69;;;9.76;89.64
2675;BME280;1347;42.122;24.746;2024-02-14T08:05:31;99542.59;;;9.81;91.08
2675;BME280;1347;42.122;24.746;2024-02-14T08:08:01;99544.81;;;9.94;90.37
2675;BME280;1347;42.122;24.746;2024-02-14T08:10:31;99545.53;;;9.91;90.31
2675;BME280;1347;42.122;24.746;2024-02-14T08:13:17;99540.47;;;9.93;89.08
2675;BME280;1347;42.122;24.746;2024-02-14T08:15:46;99553.84;;;9.98;89.89
2675;BME280;1347;42.122;24.746;2024-02-14T08:18:13;99540.91;;;9.95;88.00
2675;BME280;1347;42.122;24.746;2024-02-14T08:20:42;99544.31;;;9.89;87.83
2675;BME280;1347;42.122;24.746;2024-02-14T08:23:10;99553.84;;;9.76;88.39
2675;BME280;1347;42.122;24.746;2024-02-14T08:25:42;99548.44;;;9.79;87.99
2675;BME280;1347;42.122;24.746;2024-02-14T08:28:10;99555.13;;;9.82;88.54
2675;BME280;1347;42.122;24.746;2024-02-14T08:30:40;99547.59;;;9.75;89.09
2675;BME280;1347;42.122;24.746;2024-02-14T08:33:09;99565.28;;;9.81;88.76
2675;BME280;1347;42.122;24.746;2024-02-14T08:35:46;99557.75;;;9.75;88.36
2675;BME280;1347;42.122;24.746;2024-02-14T08:38:25;99565.97;;;9.75;90.05
2675;BME280;1347;42.122;24.746;2024-02-14T08:41:02;99571.19;;;9.83;87.74
2675;BME280;1347;42.122;24.746;2024-02-14T08:43:33;99573.50;;;9.81;88.51
2675;BME280;1347;42.122;24.746;2024-02-14T08:46:13;99564.56;;;9.84;87.53
2675;BME280;1347;42.122;24.746;2024-02-14T08:48:46;99582.44;;;9.78;87.50
2675;BME280;1347;42.122;24.746;2024-02-14T08:51:13;99576.66;;;9.83;87.16
2675;BME280;1347;42.122;24.746;2024-02-14T08:54:08;99587.03;;;9.93;86.83
2675;BME280;1347;42.122;24.746;2024-02-14T08:56:35;99579.66;;;9.97;87.27
2675;BME280;1347;42.122;24.746;2024-02-14T08:59:06;99588.84;;;9.86;87.02
2675;BME280;1347;42.122;24.746;2024-02-14T09:01:34;99591.00;;;9.96;86.43
2675;BME280;1347;42.122;24.746;2024-02-14T09:04:02;99592.50;;;9.93;85.56
2675;BME280;1347;42.122;24.746;2024-02-14T09:06:31;99593.66;;;9.92;85.80
2675;BME280;1347;42.122;24.746;2024-02-14T09:09:04;99599.38;;;9.84;85.39
2675;BME280;1347;42.122;24.746;2024-02-14T09:11:34;99602.09;;;9.84;85.41
2675;BME280;1347;42.122;24.746;2024-02-14T09:14:01;99606.47;;;9.88;86.55
2675;BME280;1347;42.122;24.746;2024-02-14T09:16:32;99603.13;;;9.76;86.44
2675;BME280;1347;42.122;24.746;2024-02-14T09:19:04;99605.56;;;9.81;87.43
2675;BME280;1347;42.122;24.746;2024-02-14T09:21:37;99621.41;;;9.72;87.24
2675;BME280;1347;42.122;24.746;2024-02-14T09:24:06;99615.09;;;9.87;86.55
2675;BME280;1347;42.122;24.746;2024-02-14T09:26:38;99613.78;;;9.81;87.62
2675;BME280;1347;42.122;24.746;2024-02-14T09:29:11;99620.75;;;9.78;88.04
2675;BME280;1347;42.122;24.746;2024-02-14T09:31:41;99618.88;;;9.82;89.33
2675;BME280;1347;42.122;24.746;2024-02-14T09:34:14;99621.13;;;9.77;89.91
2675;BME280;1347;42.122;24.746;2024-02-14T09:36:43;99614.78;;;9.73;88.57
2675;BME280;1347;42.122;24.746;2024-02-14T09:39:14;99610.78;;;9.67;89.75
2675;BME280;1347;42.122;24.746;2024-02-14T09:41:47;99611.69;;;9.74;90.16
2675;BME280;1347;42.122;24.746;2024-02-14T09:44:23;99597.84;;;9.67;90.16
2675;BME280;1347;42.122;24.746;2024-02-14T09:46:59;99596.84;;;9.75;90.28
2675;BME280;1347;42.122;24.746;2024-02-14T09:49:31;99610.38;;;9.87;93.48
2675;BME280;1347;42.122;24.746;2024-02-14T09:52:03;99619.69;;;9.83;93.27
2675;BME280;1347;42.122;24.746;2024-02-14T09:54:36;99608.94;;;9.93;94.46
2675;BME280;1347;42.122;24.746;2024-02-14T09:57:05;99621.47;;;9.94;94.27
2675;BME280;1347;42.122;24.746;2024-02-14T09:59:32;99605.88;;;9.98;94.76
2675;BME280;1347;42.122;24.746;2024-02-14T10:02:00;99611.00;;;10.00;94.76
2675;BME280;1347;42.122;24.746;2024-02-14T10:04:30;99620.88;;;10.05;95.03
2675;BME280;1347;42.122;24.746;2024-02-14T10:07:04;99605.88;;;10.18;94.94
2675;BME280;1347;42.122;24.746;2024-02-14T10:09:31;99608.75;;;10.25;93.99
2675;BME280;1347;42.122;24.746;2024-02-14T10:12:08;99602.97;;;10.30;93.25
2675;BME280;1347;42.122;24.746;2024-02-14T10:14:35;99613.75;;;10.42;92.25
2675;BME280;1347;42.122;24.746;2024-02-14T10:17:04;99613.03;;;10.45;91.76
2675;BME280;1347;42.122;24.746;2024-02-14T10:19:31;99612.94;;;10.42;90.44
2675;BME280;1347;42.122;24.746;2024-02-14T10:21:58;99613.31;;;10.40;93.05
2675;BME280;1347;42.122;24.746;2024-02-14T10:24:29;99617.38;;;10.50;90.75
2675;BME280;1347;42.122;24.746;2024-02-14T10:26:58;99609.84;;;10.66;90.21
2675;BME280;1347;42.122;24.746;2024-02-14T10:29:28;99611.25;;;10.56;87.80
2675;BME280;1347;42.122;24.746;2024-02-14T10:31:57;99604.72;;;10.64;87.33
2675;BME280;1347;42.122;24.746;2024-02-14T10:34:41;99603.50;;;10.39;87.32
2675;BME280;1347;42.122;24.746;2024-02-14T10:37:15;99603.28;;;10.48;86.73
2675;BME280;1347;42.122;24.746;2024-02-14T10:39:46;99590.91;;;10.57;87.49
2675;BME280;1347;42.122;24.746;2024-02-14T10:42:17;99594.38;;;10.54;87.27
2675;BME280;1347;42.122;24.746;2024-02-14T10:44:46;99596.22;;;10.47;86.99
2675;BME280;1347;42.122;24.746;2024-02-14T10:47:19;99586.22;;;10.58;86.27
2675;BME280;1347;42.122;24.746;2024-02-14T10:49:48;99595.69;;;10.64;85.83
2675;BME280;1347;42.122;24.746;2024-02-14T10:52:18;99580.91;;;10.68;84.78
2675;BME280;1347;42.122;24.746;2024-02-14T10:54:56;99584.19;;;10.81;85.58
2675;BME280;1347;42.122;24.746;2024-02-14T10:57:24;99574.88;;;10.86;84.87
2675;BME280;1347;42.122;24.746;2024-02-14T10:59:53;99582.84;;;10.94;86.21
2675;BME280;1347;42.122;24.746;2024-02-14T11:02:21;99579.81;;;11.03;86.12
2675;BME280;1347;42.122;24.746;2024-02-14T11:04:49;99589.78;;;11.15;86.05
2675;BME280;1347;42.122;24.746;2024-02-14T11:07:19;99594.44;;;11.40;87.22
2675;BME280;1347;42.122;24.746;2024-02-14T11:10:00;99589.75;;;12.08;85.78
2675;BME280;1347;42.122;24.746;2024-02-14T11:12:27;99590.38;;;12.35;83.49
2675;BME280;1347;42.122;24.746;2024-02-14T11:15:00;99586.56;;;12.46;81.09
2675;BME280;1347;42.122;24.746;2024-02-14T11:17:31;99593.06;;;12.75;81.64
2675;BME280;1347;42.122;24.746;2024-02-14T11:19:58;99593.09;;;12.82;79.24
2675;BME280;1347;42.122;24.746;2024-02-14T11:22:34;99596.91;;;13.18;79.21
2675;BME280;1347;42.122;24.746;2024-02-14T11:25:08;99595.41;;;13.32;77.24
2675;BME280;1347;42.122;24.746;2024-02-14T11:27:45;99597.00;;;13.36;76.96
2675;BME280;1347;42.122;24.746;2024-02-14T11:30:16;99593.44;;;13.32;77.43
2675;BME280;1347;42.122;24.746;2024-02-14T11:32:53;99595.03;;;13.33;76.29
2675;BME280;1347;42.122;24.746;2024-02-14T11:35:24;99593.84;;;13.31;74.19
2675;BME280;1347;42.122;24.746;2024-02-14T11:37:52;99595.31;;;13.14;74.58
2675;BME280;1347;42.122;24.746;2024-02-14T11:40:21;99588.19;;;13.09;75.14
2675;BME280;1347;42.122;24.746;2024-02-14T11:42:52;99601.03;;;12.95;75.57
2675;BME280;1347;42.122;24.746;2024-02-14T11:45:23;99592.34;;;12.82;72.66
2675;BME280;1347;42.122;24.746;2024-02-14T11:48:04;99575.59;;;12.53;74.77
2675;BME280;1347;42.122;24.746;2024-02-14T11:51:11;99580.78;;;12.62;74.59
2675;BME280;1347;42.122;24.746;2024-02-14T11:53:56;99587.38;;;12.06;76.06
2675;BME280;1347;42.122;24.746;2024-02-14T11:56:33;99584.41;;;12.26;75.92
2675;BME280;1347;42.122;24.746;2024-02-14T11:59:57;99593.91;;;12.35;75.21
2675;BME280;1347;42.122;24.746;2024-02-14T12:05:33;99583.25;;;12.27;78.73
2675;BME280;1347;42.122;24.746;2024-02-14T12:08:24;99582.56;;;11.96;78.75
2675;BME280;1347;42.122;24.746;2024-02-14T12:10:53;99581.88;;;12.06;81.00
2675;BME280;1347;42.122;24.746;2024-02-14T12:13:21;99592.97;;;12.17;80.63
2675;BME280;1347;42.122;24.746;2024-02-14T12:16:01;99590.28;;;12.24;80.40
2675;BME280;1347;42.122;24.746;2024-02-14T12:18:32;99595.03;;;12.27;78.95
2675;BME280;1347;42.122;24.746;2024-02-14T12:21:05;99600.97;;;12.33;80.20
2675;BME280;1347;42.122;24.746;2024-02-14T12:23:36;99589.16;;;12.29;78.42
2675;BME280;1347;42.122;24.746;2024-02-14T12:26:04;99595.59;;;12.47;78.06
2675;BME280;1347;42.122;24.746;2024-02-14T12:28:31;99595.66;;;13.09;77.51
2675;BME280;1347;42.122;24.746;2024-02-14T12:31:04;99595.19;;;13.72;74.25
2675;BME280;1347;42.122;24.746;2024-02-14T12:33:33;99603.53;;;14.08;73.48
2675;BME280;1347;42.122;24.746;2024-02-14T12:36:05;99599.53;;;13.80;72.20
2675;BME280;1347;42.122;24.746;2024-02-14T12:38:33;99606.19;;;13.69;73.09
2675;BME280;1347;42.122;24.746;2024-02-14T12:41:01;99601.78;;;13.50;74.81
2675;BME280;1347;42.122;24.746;2024-02-14T12:43:29;99592.91;;;13.09;75.11
2675;BME280;1347;42.122;24.746;2024-02-14T12:46:10;99590.75;;;13.46;73.56
2675;BME280;1347;42.122;24.746;2024-02-14T12:49:04;99601.53;;;13.83;71.03
2675;BME280;1347;42.122;24.746;2024-02-14T12:51:48;99603.34;;;13.47;71.30
2675;BME280;1347;42.122;24.746;2024-02-14T12:54:18;99600.06;;;13.24;72.83
2675;BME280;1347;42.122;24.746;2024-02-14T12:56:56;99601.19;;;13.12;72.54
2675;BME280;1347;42.122;24.746;2024-02-14T12:59:29;99582.28;;;13.11;72.37
2675;BME280;1347;42.122;24.746;2024-02-14T13:01:56;99597.88;;;13.58;71.19
2675;BME280;1347;42.122;24.746;2024-02-14T13:04:32;99587.66;;;13.58;69.69
2675;BME280;1347;42.122;24.746;2024-02-14T13:07:02;99584.56;;;13.74;69.86
2675;BME280;1347;42.122;24.746;2024-02-14T13:09:30;99588.00;;;13.43;71.00
2675;BME280;1347;42.122;24.746;2024-02-14T13:11:57;99593.78;;;13.23;70.97
2675;BME280;1347;42.122;24.746;2024-02-14T13:14:24;99600.13;;;13.31;69.87
2675;BME280;1347;42.122;24.746;2024-02-14T13:16:52;99601.28;;;13.23;68.80
2675;BME280;1347;42.122;24.746;2024-02-14T13:19:19;99610.16;;;13.06;67.30
2675;BME280;1347;42.122;24.746;2024-02-14T13:21:46;99608.13;;;12.96;68.62
2675;BME280;1347;42.122;24.746;2024-02-14T13:24:17;99602.03;;;12.65;70.49
2675;BME280;1347;42.122;24.746;2024-02-14T13:26:44;99611.22;;;12.87;70.42
2675;BME280;1347;42.122;24.746;2024-02-14T13:29:11;99616.09;;;12.57;68.47
2675;BME280;1347;42.122;24.746;2024-02-14T13:31:38;99620.88;;;12.19;69.37